Terminal Aerodrome Forecast
Issued by NWS

Home | Current Version | Previous Version | Text Only | Print | Product List | Glossary On
Versions: 1 2 3 4 5 6 7 8 9 10 11 12 13 14 15 16 17 18 19 20 21
811
FTUS46 KSEW 210523
TAFPAE
TAF
KPAE 210523Z 2106/2206 33008KT P6SM OVC040
     FM211100 36004KT P6SM OVC020
     FM211900 32004KT P6SM BKN022
     FM212000 34006KT P6SM SCT030 SCT250=

USA.gov is the U.S. government's official web portal to all federal, state and local government web resources and services.